Time;durP1;ratioP1;P1;durP2;ratioP2;P2;SDS_P1;SDS_P2;PMS_P1;PMS_P2;Temp;Humidity;BMP_temperature;BMP_pressure;BME280_temperature;BME280_humidity;BME280_pressure;Samples;Min_cycle;Max_cycle;Signal;HPM_P1;HPM_P2
2023/08/09 00:00:55;;;;;;;80.70;6.13;;;;;;;23.05;55.62;99153.41;7304753;19;130386;-37
2023/08/09 00:03:20;;;;;;;42.67;3.70;;;;;;;23.07;55.48;99149.63;7307840;19;129602;-41
2023/08/09 00:05:46;;;;;;;36.63;3.28;;;;;;;23.07;55.68;99156.69;7306449;19;129281;-42
2023/08/09 00:08:11;;;;;;;42.08;3.55;;;;;;;23.08;55.39;99155.69;7307821;19;129618;-34
2023/08/09 00:10:37;;;;;;;49.17;4.05;;;;;;;23.07;55.41;99154.06;7308961;19;130447;-34
2023/08/09 00:13:03;;;;;;;50.40;4.07;;;;;;;23.07;56.16;99140.94;7308947;19;129669;-37
2023/08/09 00:15:28;;;;;;;47.20;4.00;;;;;;;23.07;55.39;99140.94;7304118;19;131340;-43
2023/08/09 00:17:54;;;;;;;51.22;3.92;;;;;;;23.04;55.46;99136.84;7303164;19;129493;-42
2023/08/09 00:20:22;;;;;;;48.23;3.97;;;;;;;23.06;55.61;99137.50;7305262;19;130806;-41
2023/08/09 00:22:49;;;;;;;33.10;2.92;;;;;;;23.04;55.46;99126.34;7306623;19;129635;-38
2023/08/09 00:25:15;;;;;;;69.00;5.80;;;;;;;23.01;55.80;99115.34;7304717;19;131663;-40
2023/08/09 00:27:41;;;;;;;29.23;3.05;;;;;;;23.04;55.92;99109.78;7303304;19;129469;-39
2023/08/09 00:30:14;;;;;;;34.03;2.97;;;;;;;23.03;55.37;99108.97;7306254;19;129954;-38
2023/08/09 00:32:40;;;;;;;35.38;3.10;;;;;;;23.03;56.11;99114.22;7307459;19;131133;-37
2023/08/09 00:35:06;;;;;;;33.22;2.78;;;;;;;23.02;55.99;99111.78;7304756;19;129432;-40
2023/08/09 00:37:32;;;;;;;65.80;5.43;;;;;;;23.02;55.67;99103.91;7302652;19;130247;-38
2023/08/09 00:39:59;;;;;;;59.20;4.37;;;;;;;23.01;55.67;99100.44;7307110;19;130115;-38
2023/08/09 00:42:24;;;;;;;55.35;4.20;;;;;;;23.02;55.71;99107.31;7312206;19;129642;-39
2023/08/09 00:44:50;;;;;;;32.10;2.70;;;;;;;22.99;55.70;99106.84;7312397;19;128907;-37
2023/08/09 00:47:16;;;;;;;31.67;2.90;;;;;;;23.02;55.56;99111.78;7310665;19;128900;-37
2023/08/09 00:49:42;;;;;;;65.47;5.13;;;;;;;23.02;56.20;99101.28;7312660;19;129017;-40
2023/08/09 00:52:08;;;;;;;28.25;2.60;;;;;;;23.01;55.54;99104.88;7315218;19;129320;-38
2023/08/09 00:54:33;;;;;;;89.30;7.10;;;;;;;22.93;56.01;99084.72;7310516;19;129667;-40
2023/08/09 00:56:59;;;;;;;23.03;2.40;;;;;;;23.02;55.52;99096.84;7312411;19;129127;-34
2023/08/09 00:59:25;;;;;;;56.03;4.37;;;;;;;22.98;55.68;99089.47;7313491;19;129051;-38
2023/08/09 01:01:50;;;;;;;47.40;3.87;;;;;;;23.01;55.92;99097.81;7313716;19;129283;-36
2023/08/09 01:04:17;;;;;;;33.88;3.00;;;;;;;22.99;55.88;99091.91;7313183;19;129027;-38
2023/08/09 01:07:12;;;;;;;55.28;4.38;;;;;;;23.03;56.46;99084.56;7310007;19;129414;-40
2023/08/09 01:10:02;;;;;;;27.48;2.60;;;;;;;23.02;56.60;99085.56;7313775;19;129070;-40
2023/08/09 01:12:34;;;;;;;31.95;2.92;;;;;;;22.98;55.75;99087.66;7313777;19;129494;-43
2023/08/09 01:15:02;;;;;;;38.75;3.40;;;;;;;22.98;55.68;99090.28;7309962;19;129348;-39
2023/08/09 01:17:29;;;;;;;32.97;2.83;;;;;;;22.99;56.04;99096.38;7311183;19;129022;-32
2023/08/09 01:19:56;;;;;;;69.50;5.60;;;;;;;22.98;55.74;99094.69;7312083;19;129112;-40
2023/08/09 01:22:34;;;;;;;32.28;2.67;;;;;;;23.01;55.82;99104.88;7311321;19;129612;-34
2023/08/09 01:25:03;;;;;;;54.17;4.10;;;;;;;22.88;55.42;99084.38;7311334;19;129740;-34
2023/08/09 01:27:30;;;;;;;38.28;3.45;;;;;;;23.00;55.96;99103.25;7310642;19;129655;-41
2023/08/09 01:29:56;;;;;;;63.22;4.78;;;;;;;23.00;55.16;99104.06;7311907;19;130601;-41
2023/08/09 01:32:24;;;;;;;43.08;3.85;;;;;;;23.00;55.31;99098.00;7311007;19;129652;-36
2023/08/09 01:34:50;;;;;;;27.52;2.40;;;;;;;22.99;55.60;99106.84;7310613;19;129545;-37
2023/08/09 01:37:38;;;;;;;65.50;5.30;;;;;;;22.98;55.72;99092.09;7307631;19;128945;-37
2023/08/09 01:40:08;;;;;;;60.13;4.70;;;;;;;22.99;55.90;99086.69;7310884;19;129555;-38
2023/08/09 01:42:36;;;;;;;41.55;3.30;;;;;;;22.99;56.04;99091.13;7312850;19;129858;-35
2023/08/09 01:45:02;;;;;;;31.52;2.95;;;;;;;22.99;55.16;99091.13;7311666;19;128920;-35
2023/08/09 01:47:28;;;;;;;27.58;2.70;;;;;;;22.99;54.81;99093.75;7310256;19;129240;-37
2023/08/09 01:49:54;;;;;;;39.83;3.57;;;;;;;22.98;55.98;99092.09;7312826;19;129459;-35
2023/08/09 01:52:19;;;;;;;61.78;4.95;;;;;;;22.99;55.56;99091.91;7311054;19;129326;-38
2023/08/09 01:54:44;;;;;;;37.80;3.20;;;;;;;22.98;55.52;99090.28;7310429;19;129131;-35
2023/08/09 01:57:11;;;;;;;50.75;4.20;;;;;;;22.97;55.49;99093.88;7309644;19;129469;-41
2023/08/09 01:59:36;;;;;;;;;;;;;;;23.08;55.70;99092.75;7311370;19;129403;-35
2023/08/09 02:02:02;;;;;;;32.17;2.72;;;;;;;23.00;55.66;99087.50;7310755;19;129975;-37
2023/08/09 02:04:27;;;;;;;97.03;7.73;;;;;;;22.97;55.69;99079.97;7309577;19;128909;-39
2023/08/09 02:06:53;;;;;;;25.95;2.47;;;;;;;22.98;55.32;99078.97;7309684;19;129260;-36
2023/08/09 02:09:18;;;;;;;84.67;6.43;;;;;;;22.98;56.26;99084.22;7309733;19;129371;-31
2023/08/09 02:11:44;;;;;;;38.97;3.33;;;;;;;22.97;55.40;99072.91;7310909;19;129748;-41
2023/08/09 02:14:09;;;;;;;29.70;2.47;;;;;;;22.98;55.23;99077.19;7311562;19;129064;-35
2023/08/09 02:16:35;;;;;;;36.07;3.20;;;;;;;22.85;55.82;99053.25;7307894;19;129731;-39
2023/08/09 02:19:01;;;;;;;27.42;2.58;;;;;;;22.95;55.10;99074.06;7311734;19;131137;-38
2023/08/09 02:21:26;;;;;;;70.77;5.63;;;;;;;22.97;55.77;99072.09;7311296;19;130649;-40
2023/08/09 02:23:52;;;;;;;36.00;3.27;;;;;;;22.87;55.33;99059.13;7310377;19;129342;-40
2023/08/09 02:26:18;;;;;;;59.30;4.53;;;;;;;22.96;55.86;99076.50;7307610;19;129284;-38
2023/08/09 02:28:45;;;;;;;45.83;3.40;;;;;;;22.95;55.35;99063.56;7310612;19;130032;-43
2023/08/09 02:31:11;;;;;;;28.00;2.45;;;;;;;22.97;55.89;99045.88;7311545;19;129374;-38
2023/08/09 02:33:36;;;;;;;52.53;4.63;;;;;;;22.95;55.32;99042.59;7309641;19;129121;-40
2023/08/09 02:36:02;;;;;;;24.05;2.25;;;;;;;22.95;55.96;99042.59;7307319;19;129156;-33
2023/08/09 02:38:28;;;;;;;64.63;4.90;;;;;;;22.96;55.89;99038.97;7309585;19;129217;-39
2023/08/09 02:40:55;;;;;;;28.95;2.45;;;;;;;22.96;55.24;99033.75;7311198;19;130620;-41
2023/08/09 02:43:24;;;;;;;27.48;2.58;;;;;;;22.95;55.14;99045.22;7311490;19;129437;-36
2023/08/09 02:45:50;;;;;;;40.63;3.40;;;;;;;22.95;55.79;99037.34;7307391;19;130173;-36
2023/08/09 02:48:16;;;;;;;52.35;3.88;;;;;;;22.96;55.89;99033.75;7310326;19;129982;-39
2023/08/09 02:50:42;;;;;;;55.95;4.70;;;;;;;22.95;55.74;99030.31;7309308;19;132056;-41
2023/08/09 02:53:08;;;;;;;34.67;3.10;;;;;;;22.95;55.45;99037.34;7311037;19;129069;-38
2023/08/09 02:55:34;;;;;;;29.65;2.47;;;;;;;22.94;55.92;99030.50;7306365;19;129438;-45
2023/08/09 02:58:01;;;;;;;37.45;3.22;;;;;;;22.95;55.26;99021.63;7310668;19;129410;-38
2023/08/09 03:00:26;;;;;;;15.02;1.98;;;;;;;22.90;55.25;99003.78;7308116;19;130936;-38
2023/08/09 03:02:52;;;;;;;51.37;4.30;;;;;;;22.84;55.87;98998.34;7309247;19;129240;-36
2023/08/09 03:05:17;;;;;;;44.93;3.77;;;;;;;22.94;55.53;99015.56;7302938;19;130746;-40
2023/08/09 03:07:42;;;;;;;46.60;4.00;;;;;;;22.94;55.03;99014.75;7304807;19;129309;-41
2023/08/09 03:10:08;;;;;;;29.40;2.70;;;;;;;22.93;56.21;99024.41;7310251;19;129767;-33
2023/08/09 03:12:34;;;;;;;28.48;2.50;;;;;;;22.94;55.63;99020.00;7308762;19;130211;-38
2023/08/09 03:15:00;;;;;;;64.97;5.20;;;;;;;22.94;55.95;99025.25;7305894;19;129362;-36
2023/08/09 03:17:25;;;;;;;40.30;3.22;;;;;;;22.94;55.36;99025.25;7307869;19;129454;-37
2023/08/09 03:19:50;;;;;;;57.73;4.77;;;;;;;22.95;56.00;99021.63;7308818;19;129234;-38
2023/08/09 03:22:17;;;;;;;45.90;4.23;;;;;;;22.94;55.55;99028.66;7308529;19;129013;-33
2023/08/09 03:24:42;;;;;;;44.20;3.70;;;;;;;22.81;55.49;99002.09;7307442;19;130533;-37
2023/08/09 03:27:08;;;;;;;71.83;5.60;;;;;;;22.90;55.77;99021.28;7303811;19;129103;-41
2023/08/09 03:29:33;;;;;;;42.90;3.80;;;;;;;22.85;55.92;99010.47;7309187;19;129501;-40
2023/08/09 03:31:59;;;;;;;58.30;5.00;;;;;;;22.93;55.61;99029.66;7303214;19;130861;-41
2023/08/09 03:34:24;;;;;;;92.47;7.17;;;;;;;22.93;56.25;99037.53;7306467;19;129229;-47
2023/08/09 03:36:50;;;;;;;46.92;3.92;;;;;;;22.92;56.20;99032.44;7308012;19;129630;-37
2023/08/09 03:39:15;;;;;;;40.35;3.47;;;;;;;22.91;55.89;99015.06;7308209;19;129647;-33
2023/08/09 03:41:41;;;;;;;25.80;2.78;;;;;;;22.80;55.90;99010.97;7309433;19;129606;-36
2023/08/09 03:44:06;;;;;;;95.50;7.05;;;;;;;22.89;55.77;99023.09;7307172;19;130044;-40
2023/08/09 03:46:32;;;;;;;28.93;2.63;;;;;;;22.91;56.10;99022.91;7307567;19;129665;-36
2023/08/09 03:48:58;;;;;;;28.65;3.10;;;;;;;22.89;55.93;99017.03;7308588;19;130266;-35
2023/08/09 03:51:24;;;;;;;42.42;3.83;;;;;;;22.89;56.68;99022.28;7306883;19;129480;-35
2023/08/09 03:53:49;;;;;;;34.30;3.58;;;;;;;22.78;56.60;98993.75;7308753;19;129102;-39
2023/08/09 03:56:15;;;;;;;71.37;6.23;;;;;;;22.91;56.24;99012.44;7303638;19;129601;-41
2023/08/09 03:58:40;;;;;;;28.40;2.83;;;;;;;22.91;56.64;99012.44;7306608;19;130379;-36
2023/08/09 04:01:06;;;;;;;33.35;3.00;;;;;;;22.86;56.87;99004.22;7307323;19;129217;-37
2023/08/09 04:03:32;;;;;;;64.85;5.40;;;;;;;22.90;56.82;99013.44;7305902;19;129055;-37
2023/08/09 04:05:57;;;;;;;28.00;3.20;;;;;;;22.90;56.95;99013.44;7305759;19;129520;-38
2023/08/09 04:08:26;;;;;;;86.28;6.70;;;;;;;22.89;56.33;99012.59;7306496;19;130730;-43
2023/08/09 04:10:52;;;;;;;35.78;3.25;;;;;;;22.88;56.58;99010.97;7307934;19;129303;-40
2023/08/09 04:13:17;;;;;;;73.82;5.85;;;;;;;22.89;56.91;99014.41;7303903;19;129071;-39
2023/08/09 04:15:43;;;;;;;51.83;4.10;;;;;;;22.85;56.77;99015.72;7305592;19;129408;-43
2023/08/09 04:18:08;;;;;;;19.17;2.47;;;;;;;22.89;57.09;99014.41;7310560;19;129292;-42
2023/08/09 04:20:34;;;;;;;49.22;3.95;;;;;;;22.90;56.95;99022.13;7309634;19;129288;-40
2023/08/09 04:23:03;;;;;;;64.97;4.90;;;;;;;22.90;57.21;99024.75;7314075;19;129228;-40
2023/08/09 04:25:28;;;;;;;68.43;5.43;;;;;;;22.93;57.12;99031.44;7312077;19;129029;-43
2023/08/09 04:27:54;;;;;;;63.50;4.87;;;;;;;22.93;56.60;99034.06;7312010;19;130315;-38
2023/08/09 04:30:20;;;;;;;77.70;6.05;;;;;;;22.95;56.60;99034.75;7313003;19;130129;-33
2023/08/09 04:32:45;;;;;;;44.57;3.77;;;;;;;22.93;56.60;99034.06;7314666;19;129604;-36
2023/08/09 04:35:10;;;;;;;37.97;3.10;;;;;;;22.95;56.65;99037.34;7308175;19;130181;-39
2023/08/09 04:37:36;;;;;;;19.83;2.33;;;;;;;22.80;56.90;99016.22;7310943;19;130345;-39
2023/08/09 04:40:02;;;;;;;45.35;3.38;;;;;;;22.93;57.19;99042.75;7314933;19;128978;-35
2023/08/09 04:42:27;;;;;;;61.53;5.13;;;;;;;22.93;56.98;99039.31;7314427;19;128951;-38
2023/08/09 04:44:53;;;;;;;39.42;3.25;;;;;;;22.93;57.05;99047.19;7311461;19;129508;-37
2023/08/09 04:47:18;;;;;;;42.87;3.60;;;;;;;22.96;56.66;99054.72;7310321;19;129446;-46
2023/08/09 04:49:43;;;;;;;54.10;4.17;;;;;;;22.96;57.05;99058.16;7312278;19;128936;-36
2023/08/09 04:52:09;;;;;;;35.67;3.00;;;;;;;22.94;57.38;99061.94;7314135;19;129655;-38
2023/08/09 04:54:34;;;;;;;112.67;9.37;;;;;;;22.90;57.18;99060.63;7311151;19;129327;-40
2023/08/09 04:57:00;;;;;;;36.60;3.13;;;;;;;22.83;57.22;99055.19;7311721;19;129734;-34
2023/08/09 04:59:25;;;;;;;65.95;5.07;;;;;;;22.96;57.64;99086.16;7310054;19;129159;-40
2023/08/09 05:01:50;;;;;;;44.10;4.20;;;;;;;22.94;57.21;99083.72;7311460;19;129765;-41
2023/08/09 05:04:16;;;;;;;75.00;6.03;;;;;;;22.94;56.80;99088.16;7308761;19;130812;-39
2023/08/09 05:06:41;;;;;;;39.45;3.38;;;;;;;22.92;57.38;99096.16;7307316;19;131519;-36
2023/08/09 05:09:07;;;;;;;45.60;3.83;;;;;;;22.93;57.46;99102.22;7311503;19;129564;-44
2023/08/09 05:11:33;;;;;;;51.23;4.30;;;;;;;22.94;57.40;99101.25;7308996;19;129570;-44
2023/08/09 05:13:58;;;;;;;55.78;4.38;;;;;;;22.91;57.65;99110.25;7306676;19;130357;-42
2023/08/09 05:16:25;;;;;;;71.77;5.83;;;;;;;22.91;57.69;99120.75;7300164;19;130643;-38
2023/08/09 05:18:52;;;;;;;79.75;6.10;;;;;;;22.90;57.78;99124.34;7308221;19;129637;-35
2023/08/09 05:21:17;;;;;;;63.63;5.60;;;;;;;22.90;57.15;99126.97;7307900;19;129860;-44
2023/08/09 05:23:43;;;;;;;70.78;5.25;;;;;;;22.93;57.51;99128.44;7305559;19;129881;-41
2023/08/09 05:26:08;;;;;;;147.93;10.32;;;;;;;22.94;57.38;99135.34;7300149;19;131630;-41
2023/08/09 05:28:33;;;;;;;67.25;4.88;;;;;;;22.90;57.56;99134.00;7301406;19;130987;-39
2023/08/09 05:30:59;;;;;;;55.10;4.07;;;;;;;22.89;57.15;99129.75;7305736;19;131162;-45
2023/08/09 05:33:24;;;;;;;61.17;5.07;;;;;;;22.92;57.68;99140.72;7301920;19;129615;-40
2023/08/09 05:35:50;;;;;;;48.28;3.35;;;;;;;22.95;57.36;99131.72;7305238;19;129703;-42
2023/08/09 05:38:15;;;;;;;56.13;4.50;;;;;;;22.91;57.29;99125.16;7304903;19;129859;-38
2023/08/09 05:40:41;;;;;;;27.73;2.70;;;;;;;22.95;57.70;99134.34;7307094;19;130134;-39
2023/08/09 05:43:06;;;;;;;56.17;4.47;;;;;;;22.91;57.49;99135.63;7303199;19;130580;-37
2023/08/09 05:45:32;;;;;;;100.90;7.53;;;;;;;22.85;57.48;99126.63;7303179;19;130274;-41
2023/08/09 05:47:57;;;;;;;42.80;3.97;;;;;;;22.94;57.86;99151.88;7305202;19;129542;-40
2023/08/09 05:50:22;;;;;;;77.55;5.90;;;;;;;22.82;57.89;99136.59;7304609;19;131127;-38
2023/08/09 05:52:48;;;;;;;70.07;5.63;;;;;;;22.93;57.84;99139.75;7307364;19;130909;-40
2023/08/09 05:55:13;;;;;;;50.70;4.27;;;;;;;22.94;57.47;99122.25;7306135;19;130651;-42
2023/08/09 05:57:39;;;;;;;28.48;2.40;;;;;;;22.95;57.44;99118.63;7308971;19;128850;-39
2023/08/09 06:00:06;;;;;;;41.93;3.70;;;;;;;22.92;58.26;99117.13;7310843;19;129721;-39
2023/08/09 06:02:34;;;;;;;42.38;3.40;;;;;;;22.92;57.74;99105.84;7309545;19;129462;-41
2023/08/09 06:05:00;;;;;;;36.13;2.90;;;;;;;22.92;58.21;99113.72;7308789;19;131453;-42
2023/08/09 06:07:27;;;;;;;32.23;3.03;;;;;;;22.90;58.34;99107.78;7309521;19;128763;-41
2023/08/09 06:09:53;;;;;;;55.90;3.80;;;;;;;22.88;58.24;99117.63;7307316;19;129866;-43
2023/08/09 06:12:18;;;;;;;65.70;5.13;;;;;;;22.92;58.38;99111.09;7307256;19;129592;-41
2023/08/09 06:14:43;;;;;;;51.63;4.00;;;;;;;22.89;57.95;99114.03;7305405;19;130086;-40
2023/08/09 06:17:09;;;;;;;61.97;5.00;;;;;;;22.92;57.65;99122.38;7304314;19;129628;-42
2023/08/09 06:19:34;;;;;;;31.83;2.72;;;;;;;22.92;57.95;99126.81;7307518;19;129635;-41
2023/08/09 06:22:00;;;;;;;45.60;3.70;;;;;;;22.83;57.89;99101.53;7308261;19;129473;-42
2023/08/09 06:24:25;;;;;;;131.02;9.32;;;;;;;22.93;57.77;99112.72;7306840;19;130387;-42
2023/08/09 06:26:50;;;;;;;31.45;2.80;;;;;;;22.92;58.31;99111.88;7305321;19;129381;-42
2023/08/09 06:29:16;;;;;;;61.30;4.93;;;;;;;22.94;58.43;99103.88;7308946;19;129239;-38
2023/08/09 06:31:42;;;;;;;45.57;3.40;;;;;;;22.95;58.15;99105.50;7309977;19;129501;-39
2023/08/09 06:34:08;;;;;;;12.80;1.43;;;;;;;22.91;57.87;99098.94;7310178;19;129767;-41
2023/08/09 06:36:34;;;;;;;19.30;2.20;;;;;;;22.88;57.84;99086.16;7303595;19;129851;-43
2023/08/09 06:39:00;;;;;;;33.57;2.77;;;;;;;22.92;57.86;99100.59;7309605;19;129168;-42
2023/08/09 06:41:25;;;;;;;84.95;6.13;;;;;;;22.89;57.95;99093.06;7308743;19;129494;-43
2023/08/09 06:43:51;;;;;;;53.70;4.43;;;;;;;22.82;58.52;99076.31;7307260;19;129485;-41
2023/08/09 06:46:16;;;;;;;43.93;3.40;;;;;;;22.92;58.19;99100.59;7305767;19;129302;-39
2023/08/09 06:48:41;;;;;;;36.15;2.92;;;;;;;22.83;58.34;99091.06;7304020;19;130465;-38
2023/08/09 06:51:08;;;;;;;54.83;4.07;;;;;;;22.79;58.06;99084.50;7308878;19;130211;-40
2023/08/09 06:53:33;;;;;;;59.72;4.70;;;;;;;22.93;58.14;99107.47;7309841;19;129718;-37
2023/08/09 06:55:59;;;;;;;48.47;4.18;;;;;;;22.93;58.51;99095.19;7302553;19;129463;-42
2023/08/09 06:58:24;;;;;;;39.80;3.37;;;;;;;22.92;58.48;99095.34;7309288;19;129264;-39
2023/08/09 07:00:51;;;;;;;115.22;8.35;;;;;;;22.92;58.39;99101.41;7307763;19;129678;-41
2023/08/09 07:03:17;;;;;;;41.83;3.33;;;;;;;22.91;58.30;99099.78;7308991;19;131062;-41
2023/08/09 07:05:43;;;;;;;44.67;3.50;;;;;;;22.93;58.56;99099.59;7303361;19;129904;-43
2023/08/09 07:08:09;;;;;;;32.17;2.67;;;;;;;22.92;58.69;99092.72;7309713;19;129891;-42
2023/08/09 07:10:34;;;;;;;48.87;3.80;;;;;;;22.91;58.06;99093.69;7301318;19;130319;-41
2023/08/09 07:13:00;;;;;;;10.13;1.23;;;;;;;22.88;58.27;99091.41;7308128;19;131166;-43
2023/08/09 07:15:25;;;;;;;84.07;6.33;;;;;;;22.91;58.52;99094.53;7299207;19;130111;-39
2023/08/09 07:17:51;;;;;;;45.97;3.60;;;;;;;22.91;58.69;99104.19;7307915;19;129198;-43
2023/08/09 07:20:17;;;;;;;28.20;2.90;;;;;;;22.92;58.29;99113.72;7310104;19;129112;-41
2023/08/09 07:22:44;;;;;;;24.57;2.23;;;;;;;22.91;58.71;99125.16;7310568;19;129626;-40
2023/08/09 07:25:10;;;;;;;45.28;3.28;;;;;;;22.91;58.57;99119.91;7305571;19;129973;-41
2023/08/09 07:27:43;;;;;;;42.10;3.00;;;;;;;22.93;58.80;99117.97;7307639;19;129715;-41
2023/08/09 07:30:10;;;;;;;59.75;4.05;;;;;;;22.90;58.22;99123.53;7309922;19;129449;-38
2023/08/09 07:32:38;;;;;;;31.45;2.45;;;;;;;22.92;59.11;99137.31;7311122;19;129763;-41
2023/08/09 07:35:07;;;;;;;46.50;3.47;;;;;;;22.91;58.36;99140.88;7306104;19;130209;-39
2023/08/09 07:37:34;;;;;;;32.58;2.65;;;;;;;22.83;58.30;99133.81;7307185;19;129118;-40
2023/08/09 07:40:00;;;;;;;50.22;3.70;;;;;;;22.92;58.27;99153.03;7309461;19;129350;-38
2023/08/09 07:42:26;;;;;;;38.40;2.90;;;;;;;22.90;58.21;99154.97;7308024;19;129523;-43
2023/08/09 07:44:51;;;;;;;61.92;4.57;;;;;;;22.82;58.66;99144.47;7304556;19;129525;-41
2023/08/09 07:47:17;;;;;;;60.30;4.47;;;;;;;22.88;58.60;99162.19;7305170;19;129500;-41
2023/08/09 07:49:42;;;;;;;52.40;3.73;;;;;;;22.84;58.18;99166.09;7309901;19;129546;-39
2023/08/09 07:52:07;;;;;;;29.27;2.38;;;;;;;22.92;58.18;99179.25;7308646;19;129828;-35
2023/08/09 07:54:33;;;;;;;77.78;6.47;;;;;;;22.93;58.61;99186.13;7304100;19;129768;-42
2023/08/09 07:56:58;;;;;;;48.47;3.37;;;;;;;22.92;58.93;99179.25;7306544;19;129512;-41
2023/08/09 07:59:24;;;;;;;55.60;4.57;;;;;;;22.81;58.76;99169.03;7309547;19;129922;-39
2023/08/09 08:01:49;;;;;;;34.38;2.83;;;;;;;22.95;58.85;99194.66;7309817;19;129746;-39
2023/08/09 08:04:14;;;;;;;56.37;4.00;;;;;;;22.92;58.88;99195.78;7308723;19;129431;-39
2023/08/09 08:06:40;;;;;;;39.03;2.73;;;;;;;22.95;59.04;99199.91;7306441;19;129715;-30
2023/08/09 08:09:05;;;;;;;85.38;6.03;;;;;;;22.94;58.97;99203.50;7308283;19;129441;-37
2023/08/09 08:11:31;;;;;;;32.92;2.70;;;;;;;22.93;58.88;99202.69;7307694;19;129419;-39
2023/08/09 08:13:57;;;;;;;45.43;3.57;;;;;;;22.93;58.76;99202.69;7308058;19;129030;-44
2023/08/09 08:16:23;;;;;;;70.57;5.38;;;;;;;22.95;58.34;99205.13;7301677;19;130076;-41
2023/08/09 08:18:49;;;;;;;56.58;4.22;;;;;;;22.95;58.62;99213.00;7307777;19;129224;-42
2023/08/09 08:21:14;;;;;;;48.35;3.75;;;;;;;22.95;58.92;99210.38;7307247;19;129264;-35
2023/08/09 08:23:40;;;;;;;37.20;2.77;;;;;;;22.91;58.36;99199.38;7309202;19;129683;-40
2023/08/09 08:26:05;;;;;;;71.23;5.00;;;;;;;22.94;59.20;99211.38;7302746;19;129831;-40
2023/08/09 08:28:30;;;;;;;41.47;3.25;;;;;;;22.93;58.50;99212.34;7308559;19;129490;-34
2023/08/09 08:30:56;;;;;;;50.27;3.53;;;;;;;22.82;59.10;99195.09;7304708;19;129497;-38
2023/08/09 08:33:21;;;;;;;41.47;3.13;;;;;;;22.93;58.87;99212.34;7306480;19;129276;-41
2023/08/09 08:35:48;;;;;;;98.03;6.75;;;;;;;22.94;58.99;99219.22;7301193;19;129126;-41
2023/08/09 08:38:15;;;;;;;35.50;2.78;;;;;;;22.92;58.58;99227.22;7306966;19;129645;-39
2023/08/09 08:40:41;;;;;;;48.20;3.72;;;;;;;22.82;58.94;99204.75;7307802;19;129543;-37
2023/08/09 08:43:08;;;;;;;56.33;4.23;;;;;;;22.93;58.87;99228.88;7305119;19;128881;-39
2023/08/09 08:45:36;;;;;;;36.53;2.72;;;;;;;22.92;59.12;99236.91;7303889;19;129660;-39
2023/08/09 08:48:03;;;;;;;23.10;2.05;;;;;;;22.84;58.87;99218.53;7302005;19;130246;-41
2023/08/09 08:50:31;;;;;;;27.70;2.30;;;;;;;22.91;59.47;99240.50;7307568;19;130479;-37
2023/08/09 08:52:58;;;;;;;32.40;2.78;;;;;;;22.92;59.26;99253.44;7304890;19;129103;-36
2023/08/09 08:55:23;;;;;;;90.10;6.22;;;;;;;22.93;59.24;99254.28;7302954;19;130458;-38
2023/08/09 08:57:49;;;;;;;50.47;3.87;;;;;;;22.81;58.78;99238.00;7304115;19;130660;-40
2023/08/09 09:00:16;;;;;;;40.70;3.20;;;;;;;22.94;58.74;99255.94;7308475;19;130859;-33
2023/08/09 09:02:45;;;;;;;22.70;1.83;;;;;;;22.94;59.51;99261.19;7307236;19;129011;-37
2023/08/09 09:05:16;;;;;;;54.28;3.80;;;;;;;22.91;59.33;99256.22;7313268;19;129326;-36
2023/08/09 09:07:42;;;;;;;37.03;2.85;;;;;;;22.85;58.95;99247.22;7311755;19;129543;-41
2023/08/09 09:10:12;;;;;;;41.20;3.23;;;;;;;22.93;58.69;99260.34;7311038;19;129939;-33
2023/08/09 09:12:38;;;;;;;26.80;2.22;;;;;;;22.94;58.96;99267.22;7315399;19;129170;-39
2023/08/09 09:15:05;;;;;;;56.93;4.03;;;;;;;22.91;59.48;99261.47;7309790;19;129475;-38
2023/08/09 09:17:38;;;;;;;;;;;;;;;23.04;59.15;99267.94;7313169;19;129951;-37
2023/08/09 09:20:13;;;;;;;27.67;2.17;;;;;;;22.95;59.11;99273.28;7314826;19;129494;-41
2023/08/09 09:22:39;;;;;;;33.20;2.75;;;;;;;22.97;59.15;99271.34;7313955;19;128817;-38
2023/08/09 09:25:10;;;;;;;52.13;3.67;;;;;;;22.94;59.16;99267.22;7310839;19;130702;-40
2023/08/09 09:27:37;;;;;;;43.78;3.17;;;;;;;22.94;58.82;99271.66;7310799;19;129792;-33
2023/08/09 09:30:09;;;;;;;27.83;2.00;;;;;;;22.93;58.92;99278.69;7313432;19;130398;-41
2023/08/09 09:32:35;;;;;;;21.30;1.90;;;;;;;22.93;58.99;99278.69;7313179;19;129148;-40
2023/08/09 09:35:01;;;;;;;51.85;4.03;;;;;;;22.94;58.92;99282.16;7310403;19;128857;-44
2023/08/09 09:37:27;;;;;;;37.37;3.07;;;;;;;22.91;58.87;99275.41;7311472;19;130097;-38
2023/08/09 09:39:54;;;;;;;41.28;3.22;;;;;;;22.93;59.10;99277.88;7312966;19;129529;-41
2023/08/09 09:42:32;;;;;;;;;;;;;;;23.04;58.91;99285.44;7313486;19;130350;-42
2023/08/09 09:45:07;;;;;;;69.50;4.97;;;;;;;22.98;59.63;99278.22;7310521;19;128972;-41
2023/08/09 09:47:38;;;;;;;39.47;3.00;;;;;;;22.94;59.36;99271.66;7311549;19;129793;-36
2023/08/09 09:50:07;;;;;;;33.75;2.47;;;;;;;22.93;58.88;99275.25;7313717;19;129762;-38
2023/08/09 09:52:38;;;;;;;33.72;2.45;;;;;;;22.92;59.50;99269.16;7313619;19;129113;-39
2023/08/09 09:55:04;;;;;;;47.45;3.25;;;;;;;22.90;59.42;99265.91;7310220;19;130457;-41
2023/08/09 09:57:30;;;;;;;40.37;3.00;;;;;;;22.94;58.83;99274.28;7306568;19;129583;-38
2023/08/09 10:00:00;;;;;;;39.17;2.90;;;;;;;22.93;59.42;99275.25;7308135;19;129511;-42
2023/08/09 10:02:38;;;;;;;61.10;4.30;;;;;;;22.91;59.15;99269.34;7311193;19;128988;-44
2023/08/09 10:05:10;;;;;;;50.78;3.63;;;;;;;22.93;59.53;99275.25;7310760;19;129034;-43
2023/08/09 10:07:36;;;;;;;33.33;2.80;;;;;;;22.93;59.27;99280.50;7309846;19;130575;-38
2023/08/09 10:10:02;;;;;;;51.27;3.67;;;;;;;22.94;59.17;99276.91;7307168;19;129835;-37
2023/08/09 10:12:29;;;;;;;44.03;3.22;;;;;;;22.91;58.96;99277.19;7310635;19;129094;-41
2023/08/09 10:14:56;;;;;;;80.45;5.57;;;;;;;22.92;59.32;99290.16;7304641;19;130802;-42
2023/08/09 10:17:23;;;;;;;36.90;2.92;;;;;;;22.91;59.44;99292.91;7308656;19;129242;-38
2023/08/09 10:19:50;;;;;;;38.95;3.03;;;;;;;22.93;58.92;99291.81;7312810;19;129725;-41
2023/08/09 10:22:19;;;;;;;49.20;3.42;;;;;;;22.94;59.85;99293.44;7310628;19;129451;-39
2023/08/09 10:24:48;;;;;;;46.97;3.30;;;;;;;22.93;59.61;99297.06;7311906;19;129502;-37
2023/08/09 10:27:14;;;;;;;51.28;3.47;;;;;;;22.94;59.44;99295.25;7308923;19;130833;-38
2023/08/09 10:29:42;;;;;;;32.47;2.30;;;;;;;22.93;59.44;99297.06;7311146;19;129921;-41
2023/08/09 10:32:08;;;;;;;29.67;2.40;;;;;;;22.94;59.54;99292.63;7308194;19;129052;-36
2023/08/09 10:34:42;;;;;;;103.38;7.75;;;;;;;22.95;59.44;99294.28;7307486;19;129547;-36
2023/08/09 10:37:09;;;;;;;29.52;2.40;;;;;;;22.93;59.67;99296.22;7308851;19;130280;-40
2023/08/09 10:39:36;;;;;;;28.65;2.40;;;;;;;22.95;59.18;99294.28;7311074;19;130397;-38
2023/08/09 10:42:05;;;;;;;94.35;6.63;;;;;;;22.93;59.45;99298.84;7309870;19;129543;-40
2023/08/09 10:44:39;;;;;;;123.60;9.07;;;;;;;22.84;59.29;99284.06;7307487;19;129623;-40
2023/08/09 10:47:25;;;;;;;45.78;3.17;;;;;;;22.94;59.50;99297.88;7307781;19;130468;-44
2023/08/09 10:49:50;;;;;;;85.38;5.93;;;;;;;22.93;58.88;99290.97;7310210;19;129598;-42
2023/08/09 10:52:34;;;;;;;36.77;2.73;;;;;;;22.97;59.25;99298.38;7312144;19;129315;-39
2023/08/09 10:55:18;;;;;;;38.70;3.10;;;;;;;22.89;59.90;99294.91;7310200;19;129022;-39
2023/08/09 10:57:44;;;;;;;46.05;3.30;;;;;;;22.93;59.20;99315.41;7308657;19;131026;-38
2023/08/09 11:00:12;;;;;;;22.33;1.90;;;;;;;22.93;59.20;99297.06;7312058;19;129803;-37
2023/08/09 11:02:47;;;;;;;52.25;3.53;;;;;;;22.90;59.63;99288.66;7310363;19;129669;-38
2023/08/09 11:05:13;;;;;;;46.17;3.30;;;;;;;22.96;59.41;99301.97;7310209;19;129074;-45
2023/08/09 11:08:11;;;;;;;28.47;2.17;;;;;;;22.99;59.25;99293.00;7304966;19;129359;-36
2023/08/09 11:10:40;;;;;;;38.17;2.78;;;;;;;22.94;58.94;99308.38;7308956;19;130404;-40
2023/08/09 11:13:12;;;;;;;45.67;3.45;;;;;;;22.94;59.18;99305.75;7307725;19;130426;-40
2023/08/09 11:15:41;;;;;;;35.00;2.67;;;;;;;22.96;59.05;99322.13;7307253;19;129262;-38